createdAt,value
2023-03-19T00:09:58.548Z,73.43
2023-03-19T00:20:01.906Z,73.26
2023-03-19T00:30:07.376Z,73.36
2023-03-19T00:40:12.058Z,73.61
2023-03-19T00:50:16.171Z,73.90
2023-03-19T01:00:20.794Z,73.84
2023-03-19T01:10:25.057Z,74.45
2023-03-19T01:20:28.184Z,74.76
2023-03-19T01:30:31.745Z,74.87
2023-03-19T01:40:49.486Z,74.74
2023-03-19T01:50:55.547Z,75.09
2023-03-19T02:01:03.462Z,75.14
2023-03-19T02:11:09.635Z,75.17
2023-03-19T02:21:18.157Z,75.20
2023-03-19T02:31:23.316Z,74.93
2023-03-19T02:41:27.862Z,75.15
2023-03-19T02:51:31.502Z,75.43
2023-03-19T03:01:35.674Z,75.95
2023-03-19T03:11:41.260Z,75.78
2023-03-19T03:21:45.425Z,76.73
2023-03-19T03:31:48.546Z,76.13
2023-03-19T03:41:52.702Z,76.17
2023-03-19T03:51:56.271Z,76.18
2023-03-19T04:01:59.599Z,76.22
2023-03-19T04:12:05.131Z,76.24
2023-03-19T04:22:08.716Z,76.29
2023-03-19T04:32:11.919Z,76.47
2023-03-19T04:42:15.621Z,76.71
2023-03-19T04:52:31.402Z,76.92
2023-03-19T05:02:34.925Z,76.86
2023-03-19T05:12:38.848Z,77.13
2023-03-19T05:22:42.669Z,77.25
2023-03-19T05:32:47.779Z,77.52
2023-03-19T05:43:05.810Z,77.44
2023-03-19T05:53:09.715Z,77.64
2023-03-19T06:03:17.804Z,77.79
2023-03-19T06:13:24.282Z,77.21
2023-03-19T06:23:34.354Z,77.93
2023-03-19T06:33:38.802Z,78.11
2023-03-19T06:43:42.472Z,76.88
2023-03-19T06:53:45.627Z,74.48
2023-03-19T07:03:48.948Z,70.60
2023-03-19T07:13:52.749Z,67.08
2023-03-19T07:23:56.118Z,64.34
2023-03-19T07:33:59.164Z,62.91
2023-03-19T07:44:02.288Z,61.56
2023-03-19T07:54:05.465Z,59.59
2023-03-19T08:04:09.080Z,58.92
2023-03-19T08:14:12.309Z,58.42
2023-03-19T08:24:15.547Z,57.83
2023-03-19T08:34:18.577Z,56.69
2023-03-19T08:44:21.755Z,56.28
2023-03-19T08:54:24.835Z,56.16
2023-03-19T09:04:28.704Z,55.78
2023-03-19T09:14:31.944Z,54.97
2023-03-19T09:24:35.326Z,53.94
2023-03-19T09:34:40.093Z,53.13
2023-03-19T09:44:45.830Z,50.78
2023-03-19T09:54:53.984Z,47.38
2023-03-19T10:05:20.432Z,45.98
2023-03-19T10:15:32.516Z,44.30
2023-03-19T10:25:41.583Z,42.87
2023-03-19T10:35:48.890Z,40.79
2023-03-19T10:45:52.348Z,39.87
2023-03-19T10:56:03.650Z,40.08
2023-03-19T11:06:07.845Z,38.98
2023-03-19T11:16:11.522Z,38.64
2023-03-19T11:26:19.541Z,38.69
2023-03-19T11:36:54.686Z,38.09
2023-03-19T11:47:27.101Z,36.62
2023-03-19T11:58:09.882Z,36.29
2023-03-19T12:08:33.944Z,35.88
2023-03-19T12:18:37.375Z,36.16
2023-03-19T12:28:59.015Z,35.96
2023-03-19T12:39:10.688Z,35.87
2023-03-19T12:49:42.206Z,35.44
2023-03-19T12:59:59.061Z,35.72
2023-03-19T13:10:11.557Z,35.39
2023-03-19T13:20:47.131Z,35.12
2023-03-19T13:31:19.790Z,34.95
2023-03-19T13:41:35.095Z,34.51
2023-03-19T13:51:39.881Z,35.20
2023-03-19T14:01:47.723Z,34.98
2023-03-19T14:11:52.226Z,35.07
2023-03-19T14:21:56.003Z,33.99
2023-03-19T14:32:07.352Z,34.41
2023-03-19T14:42:29.622Z,34.55
2023-03-19T14:52:36.874Z,34.35
2023-03-19T15:02:44.562Z,34.54
2023-03-19T15:13:25.984Z,35.32
2023-03-19T15:23:31.256Z,35.92
2023-03-19T15:33:41.554Z,36.28
2023-03-19T15:43:47.527Z,36.48
2023-03-19T15:53:52.276Z,36.75
2023-03-19T16:03:57.944Z,37.78
2023-03-19T16:14:09.587Z,39.35
2023-03-19T16:24:31.424Z,40.77
2023-03-19T16:34:43.777Z,43.03
2023-03-19T16:44:47.860Z,45.85
2023-03-19T16:54:52.242Z,47.96
2023-03-19T17:04:56.543Z,49.77
2023-03-19T17:14:59.748Z,51.88
2023-03-19T17:25:02.856Z,53.59
2023-03-19T17:35:15.091Z,55.19
2023-03-19T17:45:25.301Z,56.46
2023-03-19T17:55:29.894Z,57.92
2023-03-19T18:05:33.059Z,59.30
2023-03-19T18:15:38.128Z,61.08
2023-03-19T18:25:41.288Z,61.92
2023-03-19T18:35:45.895Z,62.91
2023-03-19T18:45:52.985Z,63.74
2023-03-19T18:55:57.508Z,64.59
2023-03-19T19:06:00.689Z,65.63
2023-03-19T19:16:06.061Z,66.37
2023-03-19T19:26:22.210Z,67.06
2023-03-19T19:36:25.933Z,68.08
2023-03-19T19:46:31.885Z,68.63
2023-03-19T19:56:35.227Z,69.05
2023-03-19T20:06:38.785Z,69.36
2023-03-19T20:16:42.176Z,69.57
2023-03-19T20:26:45.776Z,69.93
2023-03-19T20:36:48.896Z,70.56
2023-03-19T20:46:52.604Z,70.68
2023-03-19T20:56:56.411Z,71.36
2023-03-19T21:06:59.630Z,71.80
2023-03-19T21:17:03.854Z,71.87
2023-03-19T21:27:17.976Z,71.91
2023-03-19T21:37:21.319Z,71.97
2023-03-19T21:47:26.135Z,72.29
2023-03-19T21:57:29.263Z,72.66
2023-03-19T22:07:32.519Z,73.27
2023-03-19T22:17:35.773Z,73.46
2023-03-19T22:27:41.133Z,73.97
2023-03-19T22:37:44.952Z,74.28
2023-03-19T22:47:48.212Z,74.70
2023-03-19T22:57:51.723Z,75.16
2023-03-19T23:07:55.916Z,75.18
2023-03-19T23:18:00.187Z,75.52
2023-03-19T23:28:03.261Z,75.65
2023-03-19T23:38:07.120Z,75.66
2023-03-19T23:48:21.954Z,75.54
2023-03-19T23:58:40.171Z,75.71
